sensor_id;sensor_type;location;lat;lon;timestamp;pressure;altitude;pressure_sealevel;temperature;humidity
74403;BME280;62837;51.082;13.744;2023-02-16T00:02:04;101315.33;;;4.30;72.10
74403;BME280;62837;51.082;13.744;2023-02-16T00:04:35;101318.20;;;4.29;72.46
74403;BME280;62837;51.082;13.744;2023-02-16T00:07:06;101318.45;;;4.31;71.84
74403;BME280;62837;51.082;13.744;2023-02-16T00:09:37;101322.05;;;4.26;71.75
74403;BME280;62837;51.082;13.744;2023-02-16T00:12:15;101326.36;;;4.23;71.52
74403;BME280;62837;51.082;13.744;2023-02-16T00:15:14;101323.42;;;4.19;71.70
74403;BME280;62837;51.082;13.744;2023-02-16T00:17:47;101322.30;;;4.24;71.88
74403;BME280;62837;51.082;13.744;2023-02-16T00:20:19;101317.97;;;4.25;72.22
74403;BME280;62837;51.082;13.744;2023-02-16T00:22:49;101320.26;;;4.33;72.33
74403;BME280;62837;51.082;13.744;2023-02-16T00:25:20;101318.57;;;4.36;71.72
74403;BME280;62837;51.082;13.744;2023-02-16T00:27:51;101318.04;;;4.38;72.03
74403;BME280;62837;51.082;13.744;2023-02-16T00:30:22;101324.79;;;4.43;72.22
74403;BME280;62837;51.082;13.744;2023-02-16T00:32:53;101326.19;;;4.42;71.17
74403;BME280;62837;51.082;13.744;2023-02-16T00:35:24;101328.00;;;4.42;71.86
74403;BME280;62837;51.082;13.744;2023-02-16T00:37:55;101326.02;;;4.45;71.77
74403;BME280;62837;51.082;13.744;2023-02-16T00:40:26;101325.89;;;4.44;70.90
74403;BME280;62837;51.082;13.744;2023-02-16T00:42:58;101321.45;;;4.41;71.39
74403;BME280;62837;51.082;13.744;2023-02-16T00:45:29;101319.28;;;4.40;70.45
74403;BME280;62837;51.082;13.744;2023-02-16T00:48:01;101314.86;;;4.32;71.00
74403;BME280;62837;51.082;13.744;2023-02-16T00:50:33;101309.70;;;4.19;69.11
74403;BME280;62837;51.082;13.744;2023-02-16T00:53:04;101310.50;;;4.11;71.23
74403;BME280;62837;51.082;13.744;2023-02-16T00:55:35;101305.88;;;4.15;71.13
74403;BME280;62837;51.082;13.744;2023-02-16T00:58:10;101312.39;;;4.04;69.13
74403;BME280;62837;51.082;13.744;2023-02-16T01:00:43;101316.67;;;3.88;70.49
74403;BME280;62837;51.082;13.744;2023-02-16T01:03:18;101315.17;;;3.89;71.07
74403;BME280;62837;51.082;13.744;2023-02-16T01:05:50;101315.67;;;3.94;71.25
74403;BME280;62837;51.082;13.744;2023-02-16T01:08:42;101310.20;;;3.89;70.17
74403;BME280;62837;51.082;13.744;2023-02-16T01:11:31;101302.35;;;3.83;70.86
74403;BME280;62837;51.082;13.744;2023-02-16T01:14:04;101307.88;;;3.83;71.17
74403;BME280;62837;51.082;13.744;2023-02-16T01:16:37;101308.30;;;3.81;70.57
74403;BME280;62837;51.082;13.744;2023-02-16T01:19:11;101305.64;;;3.74;70.22
74403;BME280;62837;51.082;13.744;2023-02-16T01:21:42;101306.34;;;3.74;71.45
74403;BME280;62837;51.082;13.744;2023-02-16T01:24:13;101305.08;;;3.77;70.65
74403;BME280;62837;51.082;13.744;2023-02-16T01:26:45;101299.20;;;3.79;71.53
74403;BME280;62837;51.082;13.744;2023-02-16T01:29:19;101296.67;;;3.89;71.58
74403;BME280;62837;51.082;13.744;2023-02-16T01:31:51;101301.98;;;3.98;71.81
74403;BME280;62837;51.082;13.744;2023-02-16T01:34:22;101301.55;;;3.99;70.17
74403;BME280;62837;51.082;13.744;2023-02-16T01:36:53;101302.57;;;3.94;70.95
74403;BME280;62837;51.082;13.744;2023-02-16T01:39:24;101294.95;;;3.97;70.88
74403;BME280;62837;51.082;13.744;2023-02-16T01:42:05;101295.92;;;3.98;70.08
74403;BME280;62837;51.082;13.744;2023-02-16T01:44:43;101292.72;;;3.96;70.93
74403;BME280;62837;51.082;13.744;2023-02-16T01:47:31;101292.89;;;3.96;70.77
74403;BME280;62837;51.082;13.744;2023-02-16T01:50:17;101296.08;;;4.01;70.22
74403;BME280;62837;51.082;13.744;2023-02-16T01:52:54;101294.75;;;4.01;70.52
74403;BME280;62837;51.082;13.744;2023-02-16T01:55:30;101284.91;;;4.06;70.71
74403;BME280;62837;51.082;13.744;2023-02-16T01:58:06;101283.08;;;4.07;70.29
74403;BME280;62837;51.082;13.744;2023-02-16T02:03:43;101288.83;;;4.12;70.06
74403;BME280;62837;51.082;13.744;2023-02-16T02:06:33;101282.13;;;4.12;70.52
74403;BME280;62837;51.082;13.744;2023-02-16T02:09:09;101280.63;;;4.08;69.65
74403;BME280;62837;51.082;13.744;2023-02-16T02:11:48;101277.26;;;4.02;70.59
74403;BME280;62837;51.082;13.744;2023-02-16T02:14:23;101280.83;;;3.95;68.99
74403;BME280;62837;51.082;13.744;2023-02-16T02:16:57;101282.01;;;3.83;70.25
74403;BME280;62837;51.082;13.744;2023-02-16T02:19:35;101281.96;;;3.80;69.98
74403;BME280;62837;51.082;13.744;2023-02-16T02:22:28;101282.92;;;3.83;70.66
74403;BME280;62837;51.082;13.744;2023-02-16T02:25:44;101287.43;;;3.74;70.16
74403;BME280;62837;51.082;13.744;2023-02-16T02:28:27;101294.52;;;3.79;70.55
74403;BME280;62837;51.082;13.744;2023-02-16T02:31:04;101289.91;;;3.83;70.75
74403;BME280;62837;51.082;13.744;2023-02-16T02:33:47;101289.70;;;3.91;70.67
74403;BME280;62837;51.082;13.744;2023-02-16T02:36:33;101287.58;;;3.97;70.81
74403;BME280;62837;51.082;13.744;2023-02-16T02:39:18;101277.30;;;3.99;70.49
74403;BME280;62837;51.082;13.744;2023-02-16T02:42:00;101277.85;;;4.04;70.89
74403;BME280;62837;51.082;13.744;2023-02-16T02:44:44;101274.98;;;4.05;70.66
74403;BME280;62837;51.082;13.744;2023-02-16T02:47:16;101277.40;;;4.09;70.50
74403;BME280;62837;51.082;13.744;2023-02-16T02:49:52;101270.60;;;4.07;69.51
74403;BME280;62837;51.082;13.744;2023-02-16T02:52:23;101267.18;;;4.07;70.24
74403;BME280;62837;51.082;13.744;2023-02-16T02:54:54;101263.43;;;3.98;68.89
74403;BME280;62837;51.082;13.744;2023-02-16T02:57:57;101256.59;;;3.90;69.71
74403;BME280;62837;51.082;13.744;2023-02-16T03:00:46;101260.04;;;3.87;69.62
74403;BME280;62837;51.082;13.744;2023-02-16T03:03:23;101262.29;;;3.78;68.71
74403;BME280;62837;51.082;13.744;2023-02-16T03:05:58;101262.33;;;3.67;69.56
74403;BME280;62837;51.082;13.744;2023-02-16T03:08:34;101262.77;;;3.69;70.42
74403;BME280;62837;51.082;13.744;2023-02-16T03:11:09;101263.42;;;3.75;70.39
74403;BME280;62837;51.082;13.744;2023-02-16T03:14:03;101269.55;;;3.84;70.73
74403;BME280;62837;51.082;13.744;2023-02-16T03:16:38;101268.09;;;3.85;69.57
74403;BME280;62837;51.082;13.744;2023-02-16T03:19:12;101271.90;;;3.81;69.65
74403;BME280;62837;51.082;13.744;2023-02-16T03:22:03;101273.05;;;3.79;69.40
74403;BME280;62837;51.082;13.744;2023-02-16T03:24:51;101277.13;;;3.70;69.85
74403;BME280;62837;51.082;13.744;2023-02-16T03:27:42;101271.09;;;3.72;69.98
74403;BME280;62837;51.082;13.744;2023-02-16T03:30:31;101274.84;;;3.75;69.81
74403;BME280;62837;51.082;13.744;2023-02-16T03:33:02;101270.59;;;3.80;70.29
74403;BME280;62837;51.082;13.744;2023-02-16T03:35:33;101278.01;;;3.86;70.36
74403;BME280;62837;51.082;13.744;2023-02-16T03:38:05;101271.44;;;3.76;69.00
74403;BME280;62837;51.082;13.744;2023-02-16T03:40:36;101284.87;;;3.76;69.77
74403;BME280;62837;51.082;13.744;2023-02-16T03:43:09;101286.55;;;3.67;70.11
74403;BME280;62837;51.082;13.744;2023-02-16T03:45:41;101285.02;;;3.68;70.19
74403;BME280;62837;51.082;13.744;2023-02-16T03:48:13;101292.02;;;3.64;69.28
74403;BME280;62837;51.082;13.744;2023-02-16T03:50:44;101290.10;;;3.55;69.53
74403;BME280;62837;51.082;13.744;2023-02-16T03:53:14;101286.77;;;3.51;70.55
74403;BME280;62837;51.082;13.744;2023-02-16T03:55:47;101285.11;;;3.51;69.73
74403;BME280;62837;51.082;13.744;2023-02-16T03:58:22;101282.62;;;3.50;70.07
74403;BME280;62837;51.082;13.744;2023-02-16T04:00:54;101282.62;;;3.50;70.14
74403;BME280;62837;51.082;13.744;2023-02-16T04:03:27;101276.54;;;3.51;70.71
74403;BME280;62837;51.082;13.744;2023-02-16T04:05:58;101275.54;;;3.51;69.46
74403;BME280;62837;51.082;13.744;2023-02-16T04:08:28;101275.21;;;3.38;69.90
74403;BME280;62837;51.082;13.744;2023-02-16T04:10:59;101272.90;;;3.40;71.29
74403;BME280;62837;51.082;13.744;2023-02-16T04:13:50;101271.38;;;3.54;71.20
74403;BME280;62837;51.082;13.744;2023-02-16T04:16:21;101270.70;;;3.64;70.28
74403;BME280;62837;51.082;13.744;2023-02-16T04:18:52;101277.48;;;3.71;70.65
74403;BME280;62837;51.082;13.744;2023-02-16T04:21:22;101276.09;;;3.75;70.51
74403;BME280;62837;51.082;13.744;2023-02-16T04:23:53;101274.33;;;3.77;69.44
74403;BME280;62837;51.082;13.744;2023-02-16T04:26:24;101271.63;;;3.68;69.16
74403;BME280;62837;51.082;13.744;2023-02-16T04:28:54;101269.48;;;3.60;69.80
74403;BME280;62837;51.082;13.744;2023-02-16T04:31:25;101270.17;;;3.65;70.32
74403;BME280;62837;51.082;13.744;2023-02-16T04:33:56;101264.23;;;3.72;70.33
74403;BME280;62837;51.082;13.744;2023-02-16T04:36:27;101269.98;;;3.79;69.80
74403;BME280;62837;51.082;13.744;2023-02-16T04:38:58;101267.80;;;3.78;69.85
74403;BME280;62837;51.082;13.744;2023-02-16T04:41:28;101265.52;;;3.76;69.75
74403;BME280;62837;51.082;13.744;2023-02-16T04:43:59;101259.15;;;3.71;69.39
74403;BME280;62837;51.082;13.744;2023-02-16T04:46:30;101262.98;;;3.68;70.06
74403;BME280;62837;51.082;13.744;2023-02-16T04:49:00;101261.40;;;3.72;70.26
74403;BME280;62837;51.082;13.744;2023-02-16T04:51:32;101261.52;;;3.70;69.01
74403;BME280;62837;51.082;13.744;2023-02-16T04:54:02;101257.67;;;3.48;68.76
74403;BME280;62837;51.082;13.744;2023-02-16T04:56:33;101261.42;;;3.38;69.94
74403;BME280;62837;51.082;13.744;2023-02-16T04:59:04;101263.42;;;3.38;70.56
74403;BME280;62837;51.082;13.744;2023-02-16T05:01:35;101264.30;;;3.45;70.38
74403;BME280;62837;51.082;13.744;2023-02-16T05:04:06;101267.30;;;3.52;70.40
74403;BME280;62837;51.082;13.744;2023-02-16T05:06:39;101264.80;;;3.60;70.60
74403;BME280;62837;51.082;13.744;2023-02-16T05:09:10;101263.29;;;3.70;71.03
74403;BME280;62837;51.082;13.744;2023-02-16T05:11:40;101263.03;;;3.74;70.00
74403;BME280;62837;51.082;13.744;2023-02-16T05:14:31;101266.40;;;3.72;69.15
74403;BME280;62837;51.082;13.744;2023-02-16T05:17:13;101263.23;;;3.51;68.75
74403;BME280;62837;51.082;13.744;2023-02-16T05:19:46;101262.53;;;3.33;69.66
74403;BME280;62837;51.082;13.744;2023-02-16T05:22:16;101263.46;;;3.23;69.54
74403;BME280;62837;51.082;13.744;2023-02-16T05:24:47;101269.60;;;3.18;70.05
74403;BME280;62837;51.082;13.744;2023-02-16T05:27:20;101267.45;;;3.06;69.79
74403;BME280;62837;51.082;13.744;2023-02-16T05:29:51;101270.17;;;2.95;69.79
74403;BME280;62837;51.082;13.744;2023-02-16T05:32:22;101274.48;;;2.81;69.60
74403;BME280;62837;51.082;13.744;2023-02-16T05:34:53;101279.80;;;2.64;69.66
74403;BME280;62837;51.082;13.744;2023-02-16T05:37:23;101278.48;;;2.54;70.06
74403;BME280;62837;51.082;13.744;2023-02-16T05:39:54;101281.70;;;2.47;70.37
74403;BME280;62837;51.082;13.744;2023-02-16T05:42:26;101280.75;;;2.40;70.92
74403;BME280;62837;51.082;13.744;2023-02-16T05:44:56;101281.02;;;2.34;71.06
74403;BME280;62837;51.082;13.744;2023-02-16T05:47:27;101279.58;;;2.29;71.23
74403;BME280;62837;51.082;13.744;2023-02-16T05:49:57;101281.67;;;2.25;71.60
74403;BME280;62837;51.082;13.744;2023-02-16T05:52:31;101284.86;;;2.21;71.61
74403;BME280;62837;51.082;13.744;2023-02-16T05:55:00;101291.72;;;2.17;71.71
74403;BME280;62837;51.082;13.744;2023-02-16T05:57:31;101287.55;;;2.12;72.02
74403;BME280;62837;51.082;13.744;2023-02-16T06:00:04;101295.55;;;2.07;71.86
74403;BME280;62837;51.082;13.744;2023-02-16T06:02:37;101290.21;;;1.98;72.13
74403;BME280;62837;51.082;13.744;2023-02-16T06:05:08;101303.30;;;1.88;72.03
74403;BME280;62837;51.082;13.744;2023-02-16T06:07:39;101300.14;;;1.75;72.44
74403;BME280;62837;51.082;13.744;2023-02-16T06:10:10;101296.41;;;1.68;72.67
74403;BME280;62837;51.082;13.744;2023-02-16T06:12:41;101294.88;;;1.64;72.92
74403;BME280;62837;51.082;13.744;2023-02-16T06:15:13;101295.63;;;1.64;73.16
74403;BME280;62837;51.082;13.744;2023-02-16T06:17:44;101292.96;;;1.64;73.29
74403;BME280;62837;51.082;13.744;2023-02-16T06:20:15;101293.20;;;1.62;73.43
74403;BME280;62837;51.082;13.744;2023-02-16T06:22:45;101291.77;;;1.59;73.43
74403;BME280;62837;51.082;13.744;2023-02-16T06:25:16;101291.05;;;1.58;74.72
74403;BME280;62837;51.082;13.744;2023-02-16T06:27:48;101287.89;;;2.09;83.22
74403;BME280;62837;51.082;13.744;2023-02-16T06:30:21;101288.79;;;2.71;82.03
74403;BME280;62837;51.082;13.744;2023-02-16T06:32:52;101289.41;;;2.99;77.37
74403;BME280;62837;51.082;13.744;2023-02-16T06:35:22;101283.98;;;2.96;74.72
74403;BME280;62837;51.082;13.744;2023-02-16T06:37:53;101289.97;;;2.88;73.51
74403;BME280;62837;51.082;13.744;2023-02-16T06:40:24;101285.52;;;2.75;72.92
74403;BME280;62837;51.082;13.744;2023-02-16T06:42:55;101289.61;;;2.64;72.58
74403;BME280;62837;51.082;13.744;2023-02-16T06:45:26;101293.85;;;2.54;72.86
74403;BME280;62837;51.082;13.744;2023-02-16T06:47:59;101297.09;;;2.48;72.44
74403;BME280;62837;51.082;13.744;2023-02-16T06:50:30;101294.30;;;2.43;72.82
74403;BME280;62837;51.082;13.744;2023-02-16T06:53:00;101288.16;;;2.39;72.99
74403;BME280;62837;51.082;13.744;2023-02-16T06:55:31;101291.10;;;2.35;72.76
74403;BME280;62837;51.082;13.744;2023-02-16T06:58:06;101293.20;;;2.33;72.76
74403;BME280;62837;51.082;13.744;2023-02-16T07:00:37;101291.80;;;2.30;72.94
74403;BME280;62837;51.082;13.744;2023-02-16T07:03:08;101285.44;;;2.28;72.97
74403;BME280;62837;51.082;13.744;2023-02-16T07:05:39;101287.50;;;2.28;73.03
74403;BME280;62837;51.082;13.744;2023-02-16T07:08:10;101287.70;;;2.28;73.10
74403;BME280;62837;51.082;13.744;2023-02-16T07:10:44;101283.73;;;2.28;73.12
74403;BME280;62837;51.082;13.744;2023-02-16T07:13:18;101283.16;;;2.29;73.27
74403;BME280;62837;51.082;13.744;2023-02-16T07:15:49;101279.65;;;2.31;73.31
74403;BME280;62837;51.082;13.744;2023-02-16T07:18:20;101270.61;;;2.36;72.88
74403;BME280;62837;51.082;13.744;2023-02-16T07:20:51;101262.70;;;2.34;72.81
74403;BME280;62837;51.082;13.744;2023-02-16T07:23:23;101272.30;;;2.40;72.92
74403;BME280;62837;51.082;13.744;2023-02-16T07:25:57;101267.85;;;2.41;72.59
74403;BME280;62837;51.082;13.744;2023-02-16T07:28:28;101270.13;;;2.43;72.46
74403;BME280;62837;51.082;13.744;2023-02-16T07:30:59;101265.80;;;2.44;73.05
74403;BME280;62837;51.082;13.744;2023-02-16T07:33:35;101269.35;;;2.45;72.54
74403;BME280;62837;51.082;13.744;2023-02-16T07:36:09;101271.52;;;2.48;72.50
74403;BME280;62837;51.082;13.744;2023-02-16T07:38:40;101281.18;;;2.51;72.65
74403;BME280;62837;51.082;13.744;2023-02-16T07:41:12;101287.75;;;2.57;72.35
74403;BME280;62837;51.082;13.744;2023-02-16T07:43:43;101295.04;;;2.64;72.54
74403;BME280;62837;51.082;13.744;2023-02-16T07:46:14;101301.00;;;2.68;72.68
74403;BME280;62837;51.082;13.744;2023-02-16T07:48:47;101298.29;;;2.85;72.41
74403;BME280;62837;51.082;13.744;2023-02-16T07:51:23;101297.25;;;3.06;72.53
74403;BME280;62837;51.082;13.744;2023-02-16T07:53:55;101293.66;;;3.25;71.54
74403;BME280;62837;51.082;13.744;2023-02-16T07:56:28;101287.66;;;3.44;71.56
74403;BME280;62837;51.082;13.744;2023-02-16T07:59:01;101289.34;;;3.65;70.75
74403;BME280;62837;51.082;13.744;2023-02-16T08:01:32;101288.42;;;3.78;70.56
74403;BME280;62837;51.082;13.744;2023-02-16T08:04:04;101285.98;;;3.88;70.52
74403;BME280;62837;51.082;13.744;2023-02-16T08:06:36;101289.05;;;4.06;69.72
74403;BME280;62837;51.082;13.744;2023-02-16T08:09:06;101290.36;;;4.20;68.74
74403;BME280;62837;51.082;13.744;2023-02-16T08:11:37;101289.77;;;4.28;69.24
74403;BME280;62837;51.082;13.744;2023-02-16T08:14:08;101291.54;;;4.44;68.75
74403;BME280;62837;51.082;13.744;2023-02-16T08:16:39;101293.90;;;4.67;68.99
74403;BME280;62837;51.082;13.744;2023-02-16T08:19:12;101293.56;;;4.94;68.21
74403;BME280;62837;51.082;13.744;2023-02-16T08:21:43;101295.19;;;5.12;67.22
74403;BME280;62837;51.082;13.744;2023-02-16T08:24:17;101293.67;;;5.29;67.27
74403;BME280;62837;51.082;13.744;2023-02-16T08:26:48;101289.98;;;5.46;66.83
74403;BME280;62837;51.082;13.744;2023-02-16T08:29:19;101284.35;;;5.66;66.60
74403;BME280;62837;51.082;13.744;2023-02-16T08:31:50;101282.66;;;5.88;66.16
74403;BME280;62837;51.082;13.744;2023-02-16T08:34:24;101280.95;;;6.12;65.65
74403;BME280;62837;51.082;13.744;2023-02-16T08:36:56;101280.67;;;6.32;64.88
74403;BME280;62837;51.082;13.744;2023-02-16T08:39:28;101282.58;;;6.43;64.38
74403;BME280;62837;51.082;13.744;2023-02-16T08:42:00;101282.09;;;6.53;63.45
74403;BME280;62837;51.082;13.744;2023-02-16T08:44:32;101281.77;;;6.58;63.38
74403;BME280;62837;51.082;13.744;2023-02-16T08:47:03;101275.36;;;6.66;63.32
74403;BME280;62837;51.082;13.744;2023-02-16T08:49:33;101273.09;;;6.77;62.87
74403;BME280;62837;51.082;13.744;2023-02-16T08:52:05;101271.01;;;6.89;62.34
74403;BME280;62837;51.082;13.744;2023-02-16T08:54:36;101269.56;;;6.97;62.13
74403;BME280;62837;51.082;13.744;2023-02-16T08:57:07;101267.39;;;7.11;62.13
74403;BME280;62837;51.082;13.744;2023-02-16T08:59:38;101267.45;;;7.26;61.59
74403;BME280;62837;51.082;13.744;2023-02-16T09:02:10;101266.77;;;7.37;61.36
74403;BME280;62837;51.082;13.744;2023-02-16T09:04:41;101264.78;;;7.44;61.11
74403;BME280;62837;51.082;13.744;2023-02-16T09:07:12;101257.50;;;7.51;60.62
74403;BME280;62837;51.082;13.744;2023-02-16T09:09:43;101251.95;;;7.57;60.61
74403;BME280;62837;51.082;13.744;2023-02-16T09:12:14;101250.18;;;7.56;60.47
74403;BME280;62837;51.082;13.744;2023-02-16T09:14:45;101257.27;;;7.55;60.24
74403;BME280;62837;51.082;13.744;2023-02-16T09:17:15;101256.27;;;7.61;59.85
74403;BME280;62837;51.082;13.744;2023-02-16T09:19:48;101252.69;;;7.68;59.82
74403;BME280;62837;51.082;13.744;2023-02-16T09:22:19;101252.03;;;7.72;59.48
74403;BME280;62837;51.082;13.744;2023-02-16T09:24:50;101246.84;;;7.82;59.61
74403;BME280;62837;51.082;13.744;2023-02-16T09:27:20;101245.10;;;7.96;59.46
74403;BME280;62837;51.082;13.744;2023-02-16T09:29:51;101253.85;;;8.05;58.75
74403;BME280;62837;51.082;13.744;2023-02-16T09:32:22;101255.43;;;8.02;58.71
74403;BME280;62837;51.082;13.744;2023-02-16T09:34:57;101248.84;;;8.04;58.61
74403;BME280;62837;51.082;13.744;2023-02-16T09:37:28;101248.05;;;8.08;58.82
74403;BME280;62837;51.082;13.744;2023-02-16T09:39:58;101243.58;;;8.10;58.77
74403;BME280;62837;51.082;13.744;2023-02-16T09:42:35;101243.88;;;8.11;58.56
74403;BME280;62837;51.082;13.744;2023-02-16T09:45:14;101239.80;;;8.12;58.71
74403;BME280;62837;51.082;13.744;2023-02-16T09:47:49;101241.91;;;8.07;58.49
74403;BME280;62837;51.082;13.744;2023-02-16T09:50:42;101226.69;;;8.02;59.03
74403;BME280;62837;51.082;13.744;2023-02-16T09:53:31;101235.91;;;8.11;58.54
74403;BME280;62837;51.082;13.744;2023-02-16T09:56:12;101239.86;;;8.11;58.32
74403;BME280;62837;51.082;13.744;2023-02-16T09:58:47;101240.46;;;8.09;58.23
74403;BME280;62837;51.082;13.744;2023-02-16T10:01:26;101239.83;;;8.13;58.55
74403;BME280;62837;51.082;13.744;2023-02-16T10:04:15;101244.05;;;8.15;58.16
74403;BME280;62837;51.082;13.744;2023-02-16T10:06:59;101241.17;;;8.18;57.88
74403;BME280;62837;51.082;13.744;2023-02-16T10:09:33;101246.83;;;8.19;57.82
74403;BME280;62837;51.082;13.744;2023-02-16T10:12:08;101250.82;;;8.26;58.29
74403;BME280;62837;51.082;13.744;2023-02-16T10:14:42;101253.88;;;8.33;58.18
74403;BME280;62837;51.082;13.744;2023-02-16T10:17:18;101249.60;;;8.36;58.47
74403;BME280;62837;51.082;13.744;2023-02-16T10:19:54;101247.02;;;8.37;58.33
74403;BME280;62837;51.082;13.744;2023-02-16T10:22:32;101242.73;;;8.45;58.32
74403;BME280;62837;51.082;13.744;2023-02-16T10:25:07;101241.02;;;8.51;57.89
74403;BME280;62837;51.082;13.744;2023-02-16T10:27:44;101247.19;;;8.64;57.80
74403;BME280;62837;51.082;13.744;2023-02-16T10:30:19;101241.43;;;8.80;57.96
74403;BME280;62837;51.082;13.744;2023-02-16T10:32:59;101239.80;;;8.90;57.72
74403;BME280;62837;51.082;13.744;2023-02-16T10:35:39;101237.98;;;9.01;57.84
74403;BME280;62837;51.082;13.744;2023-02-16T10:38:22;101234.25;;;9.06;57.43
74403;BME280;62837;51.082;13.744;2023-02-16T10:41:00;101225.66;;;9.15;57.24
74403;BME280;62837;51.082;13.744;2023-02-16T10:43:42;101224.14;;;9.23;56.94
74403;BME280;62837;51.082;13.744;2023-02-16T10:46:19;101215.77;;;9.25;56.54
74403;BME280;62837;51.082;13.744;2023-02-16T10:48:54;101217.01;;;9.27;56.84
74403;BME280;62837;51.082;13.744;2023-02-16T10:51:27;101209.31;;;9.34;56.62
74403;BME280;62837;51.082;13.744;2023-02-16T10:54:02;101204.70;;;9.38;56.82
74403;BME280;62837;51.082;13.744;2023-02-16T10:56:49;101203.33;;;9.42;56.45
74403;BME280;62837;51.082;13.744;2023-02-16T10:59:24;101201.93;;;9.46;56.50
74403;BME280;62837;51.082;13.744;2023-02-16T11:01:58;101203.30;;;9.50;56.02
74403;BME280;62837;51.082;13.744;2023-02-16T11:04:39;101199.85;;;9.47;55.65
74403;BME280;62837;51.082;13.744;2023-02-16T11:07:12;101199.63;;;9.41;56.06
74403;BME280;62837;51.082;13.744;2023-02-16T11:09:46;101201.00;;;9.43;56.42
74403;BME280;62837;51.082;13.744;2023-02-16T11:12:25;101199.75;;;9.47;56.35
74403;BME280;62837;51.082;13.744;2023-02-16T11:14:59;101199.42;;;9.53;56.17
74403;BME280;62837;51.082;13.744;2023-02-16T11:17:46;101194.24;;;9.57;56.07
74403;BME280;62837;51.082;13.744;2023-02-16T11:20:27;101195.96;;;9.63;56.23
74403;BME280;62837;51.082;13.744;2023-02-16T11:23:20;101190.29;;;9.62;55.16
74403;BME280;62837;51.082;13.744;2023-02-16T11:25:58;101188.36;;;9.56;55.63
74403;BME280;62837;51.082;13.744;2023-02-16T11:28:32;101188.52;;;9.58;55.97
74403;BME280;62837;51.082;13.744;2023-02-16T11:31:15;101182.09;;;9.66;56.09
74403;BME280;62837;51.082;13.744;2023-02-16T11:33:58;101176.19;;;9.73;56.02
74403;BME280;62837;51.082;13.744;2023-02-16T11:36:36;101176.70;;;9.80;55.84
74403;BME280;62837;51.082;13.744;2023-02-16T11:39:16;101167.29;;;9.86;55.91
74403;BME280;62837;51.082;13.744;2023-02-16T11:41:52;101163.79;;;9.93;55.93
74403;BME280;62837;51.082;13.744;2023-02-16T11:44:28;101163.34;;;9.97;55.48
74403;BME280;62837;51.082;13.744;2023-02-16T11:47:03;101159.39;;;9.99;55.28
74403;BME280;62837;51.082;13.744;2023-02-16T11:49:37;101154.21;;;10.01;55.28
74403;BME280;62837;51.082;13.744;2023-02-16T11:52:26;101149.33;;;10.01;55.25
74403;BME280;62837;51.082;13.744;2023-02-16T11:55:00;101147.88;;;10.05;55.21
74403;BME280;62837;51.082;13.744;2023-02-16T11:57:33;101144.96;;;10.07;55.31
74403;BME280;62837;51.082;13.744;2023-02-16T12:00:15;101141.59;;;10.10;55.08
74403;BME280;62837;51.082;13.744;2023-02-16T12:03:23;101138.77;;;10.12;55.32
74403;BME280;62837;51.082;13.744;2023-02-16T12:06:09;101135.54;;;10.16;55.48
74403;BME280;62837;51.082;13.744;2023-02-16T12:09:05;101140.55;;;10.20;55.43
74403;BME280;62837;51.082;13.744;2023-02-16T12:11:47;101134.09;;;10.21;54.94
74403;BME280;62837;51.082;13.744;2023-02-16T12:14:31;101135.54;;;10.23;55.19
74403;BME280;62837;51.082;13.744;2023-02-16T12:17:14;101131.39;;;10.26;55.10
74403;BME280;62837;51.082;13.744;2023-02-16T12:19:51;101126.61;;;10.28;54.77
74403;BME280;62837;51.082;13.744;2023-02-16T12:22:36;101123.84;;;10.29;54.71
74403;BME280;62837;51.082;13.744;2023-02-16T12:25:27;101117.90;;;10.32;55.17
74403;BME280;62837;51.082;13.744;2023-02-16T12:28:09;101116.00;;;10.35;54.88
74403;BME280;62837;51.082;13.744;2023-02-16T12:30:54;101114.20;;;10.38;54.99
74403;BME280;62837;51.082;13.744;2023-02-16T12:33:38;101111.11;;;10.43;54.89
74403;BME280;62837;51.082;13.744;2023-02-16T12:36:33;101109.09;;;10.48;55.02
74403;BME280;62837;51.082;13.744;2023-02-16T12:39:17;101110.50;;;10.52;55.08
74403;BME280;62837;51.082;13.744;2023-02-16T12:41:58;101106.97;;;10.54;54.86
74403;BME280;62837;51.082;13.744;2023-02-16T12:44:36;101100.90;;;10.56;54.59
74403;BME280;62837;51.082;13.744;2023-02-16T12:47:12;101096.98;;;10.60;54.82
74403;BME280;62837;51.082;13.744;2023-02-16T12:49:52;101096.43;;;10.65;54.89
74403;BME280;62837;51.082;13.744;2023-02-16T12:52:32;101096.01;;;10.65;54.64
74403;BME280;62837;51.082;13.744;2023-02-16T12:55:19;101089.68;;;10.66;54.80
74403;BME280;62837;51.082;13.744;2023-02-16T12:57:58;101088.09;;;10.65;54.63
74403;BME280;62837;51.082;13.744;2023-02-16T13:00:39;101088.91;;;10.65;54.39
74403;BME280;62837;51.082;13.744;2023-02-16T13:03:23;101085.79;;;10.66;54.51
74403;BME280;62837;51.082;13.744;2023-02-16T13:06:05;101085.27;;;10.68;54.56
74403;BME280;62837;51.082;13.744;2023-02-16T13:08:41;101082.71;;;10.69;54.71
74403;BME280;62837;51.082;13.744;2023-02-16T13:11:18;101080.86;;;10.68;54.71
74403;BME280;62837;51.082;13.744;2023-02-16T13:13:52;101075.14;;;10.65;54.80
74403;BME280;62837;51.082;13.744;2023-02-16T13:16:35;101074.77;;;10.60;54.84
74403;BME280;62837;51.082;13.744;2023-02-16T13:19:11;101072.84;;;10.55;54.80
74403;BME280;62837;51.082;13.744;2023-02-16T13:24:49;101070.35;;;10.44;55.21
74403;BME280;62837;51.082;13.744;2023-02-16T13:27:31;101070.30;;;10.40;55.01
74403;BME280;62837;51.082;13.744;2023-02-16T13:30:21;101069.72;;;10.36;55.18
74403;BME280;62837;51.082;13.744;2023-02-16T13:33:08;101071.71;;;10.29;55.28
74403;BME280;62837;51.082;13.744;2023-02-16T13:35:55;101067.07;;;10.21;55.69
74403;BME280;62837;51.082;13.744;2023-02-16T13:38:47;101066.27;;;10.16;55.65